Time;durP1;ratioP1;P1;durP2;ratioP2;P2;SDS_P1;SDS_P2;PMS_P1;PMS_P2;Temp;Humidity;BMP_temperature;BMP_pressure;BME280_temperature;BME280_humidity;BME280_pressure;Samples;Min_cycle;Max_cycle;Signal;HPM_P1;HPM_P2
2024/03/16 00:01:30;;;;;;;;;;;;;;;21.22;43.75;95522.03;10335187;28;2089;-67
2024/03/16 00:06:30;;;;;;;;;;;;;;;21.20;43.72;95513.63;10294272;28;2042;-66
2024/03/16 00:11:33;;;;;;;;;;;;;;;21.20;43.48;95518.09;10292209;28;2213;-67
2024/03/16 00:16:33;;;;;;;;;;;;;;;21.18;42.85;95512.31;10311228;28;2018;-68
2024/03/16 00:21:33;;;;;;;;;;;;;;;21.14;43.43;95517.38;10294083;28;2706;-68
2024/03/16 00:26:34;;;;;;;;;;;;;;;21.14;43.40;95529.75;10294762;28;2161;-69
2024/03/16 00:31:34;;;;;;;;;;;;;;;21.12;43.42;95524.00;10295207;28;1935;-68
2024/03/16 00:36:34;;;;;;;;;;;;;;;21.10;43.35;95537.47;10294268;28;2039;-68
2024/03/16 00:41:35;;;;;;;;;;;;;;;21.08;43.58;95545.63;10292370;28;2003;-69
2024/03/16 00:46:35;;;;;;;;;;;;;;;21.06;43.59;95547.00;10278382;28;2121;-68
2024/03/16 00:51:35;;;;;;;;;;;;;;;21.05;43.42;95550.69;10277303;28;2046;-68
2024/03/16 00:56:36;;;;;;;;;;;;;;;21.02;43.32;95549.38;10294375;28;2022;-68
2024/03/16 01:01:36;;;;;;;;;;;;;;;21.01;43.13;95558.34;10291875;28;2333;-68
2024/03/16 01:06:37;;;;;;;;;;;;;;;20.99;43.46;95563.09;10294742;28;2127;-69
2024/03/16 01:11:37;;;;;;;;;;;;;;;20.97;42.70;95570.50;10323895;28;2068;-68
2024/03/16 01:16:37;;;;;;;;;;;;;;;20.96;43.08;95583.94;10321395;28;2336;-66
2024/03/16 01:21:37;;;;;;;;;;;;;;;20.94;43.09;95600.03;10293134;28;2162;-69
2024/03/16 01:26:38;;;;;;;;;;;;;;;20.92;43.17;95599.53;10278318;28;2107;-69
2024/03/16 01:31:38;;;;;;;;;;;;;;;20.91;42.38;95608.53;10293396;28;2058;-68
2024/03/16 01:36:38;;;;;;;;;;;;;;;20.89;42.89;95610.66;10308748;28;2042;-68
2024/03/16 01:41:40;;;;;;;;;;;;;;;20.88;42.94;95618.81;10322710;28;2125;-69
2024/03/16 01:46:41;;;;;;;;;;;;;;;20.87;42.96;95623.31;10319822;28;2222;-69
2024/03/16 01:51:42;;;;;;;;;;;;;;;20.86;43.44;95634.91;10321306;28;2140;-69
2024/03/16 01:56:42;;;;;;;;;;;;;;;20.85;43.46;95614.91;10292726;28;2478;-69
2024/03/16 02:01:42;;;;;;;;;;;;;;;20.84;43.26;95623.84;10289842;28;2333;-69
2024/03/16 02:06:48;;;;;;;;;;;;;;;20.83;43.51;95632.84;10322168;28;2058;-69
2024/03/16 02:11:49;;;;;;;;;;;;;;;20.82;43.16;95625.97;10296331;28;2113;-69
2024/03/16 02:16:50;;;;;;;;;;;;;;;20.79;42.97;95620.50;10320013;28;2120;-69
2024/03/16 02:21:50;;;;;;;;;;;;;;;20.79;42.96;95618.63;10290762;28;2085;-68
2024/03/16 02:26:50;;;;;;;;;;;;;;;20.78;42.94;95622.34;10273450;28;1974;-69
2024/03/16 02:31:51;;;;;;;;;;;;;;;20.75;43.00;95630.00;10291228;28;2203;-69
2024/03/16 02:36:52;;;;;;;;;;;;;;;20.75;42.93;95630.00;10290431;28;2159;-69
2024/03/16 02:41:55;;;;;;;;;;;;;;;20.72;42.78;95620.81;10291574;28;2148;-69
2024/03/16 02:46:56;;;;;;;;;;;;;;;20.71;42.91;95624.50;10375045;28;2310;-69
2024/03/16 02:51:56;;;;;;;;;;;;;;;20.71;42.90;95619.22;10277583;28;2018;-69
2024/03/16 02:56:56;;;;;;;;;;;;;;;20.69;42.75;95631.88;10293480;28;2046;-69
2024/03/16 03:01:57;;;;;;;;;;;;;;;20.68;42.63;95630.31;10298817;28;2062;-69
2024/03/16 03:06:57;;;;;;;;;;;;;;;20.67;42.32;95622.72;10282144;28;2102;-69
2024/03/16 03:11:58;;;;;;;;;;;;;;;20.66;42.68;95629.81;10295813;28;2132;-69
2024/03/16 03:16:58;;;;;;;;;;;;;;;20.64;42.43;95626.69;10296775;28;2101;-69
2024/03/16 03:21:59;;;;;;;;;;;;;;;20.64;42.52;95628.50;10299139;28;2080;-70
2024/03/16 03:26:59;;;;;;;;;;;;;;;20.62;42.47;95623.53;10297670;28;2121;-69
2024/03/16 03:31:59;;;;;;;;;;;;;;;20.61;42.32;95629.09;10298466;28;2242;-69
2024/03/16 03:37:00;;;;;;;;;;;;;;;20.60;42.24;95628.28;10297678;28;2101;-69
2024/03/16 03:42:00;;;;;;;;;;;;;;;20.58;42.16;95624.34;10284775;28;2097;-68
2024/03/16 03:47:02;;;;;;;;;;;;;;;20.58;42.34;95625.16;10328329;28;2087;-68
2024/03/16 03:52:03;;;;;;;;;;;;;;;20.57;41.92;95628.81;10312767;28;2070;-69
2024/03/16 03:57:03;;;;;;;;;;;;;;;20.56;42.37;95626.47;10294637;28;2034;-70
2024/03/16 04:02:06;;;;;;;;;;;;;;;20.54;42.14;95633.88;10293500;28;2033;-68
2024/03/16 04:07:07;;;;;;;;;;;;;;;20.54;41.95;95631.22;10298043;28;2131;-69
2024/03/16 04:12:09;;;;;;;;;;;;;;;20.53;42.30;95635.72;10296414;28;2047;-69
2024/03/16 04:17:09;;;;;;;;;;;;;;;20.52;41.88;95636.00;10294284;28;2239;-69
2024/03/16 04:22:11;;;;;;;;;;;;;;;20.49;41.91;95637.31;10295560;28;2104;-69
2024/03/16 04:27:14;;;;;;;;;;;;;;;20.50;42.05;95638.91;10295575;28;2460;-68
2024/03/16 04:32:14;;;;;;;;;;;;;;;20.47;41.92;95634.19;10293452;28;2113;-69
2024/03/16 04:37:14;;;;;;;;;;;;;;;20.48;41.85;95634.97;10292937;28;2074;-69
2024/03/16 04:42:15;;;;;;;;;;;;;;;20.46;41.82;95640.53;10296699;28;2113;-69
2024/03/16 04:47:15;;;;;;;;;;;;;;;20.46;41.84;95637.09;10293688;28;2006;-68
2024/03/16 04:52:15;;;;;;;;;;;;;;;20.45;41.86;95635.50;10293381;28;2021;-69
2024/03/16 04:57:18;;;;;;;;;;;;;;;20.43;41.75;95627.91;10325192;28;2029;-69
2024/03/16 05:02:18;;;;;;;;;;;;;;;20.42;41.59;95623.69;10292488;28;2426;-69
2024/03/16 05:07:18;;;;;;;;;;;;;;;20.42;41.68;95623.69;10292118;28;2176;-70
2024/03/16 05:12:21;;;;;;;;;;;;;;;20.45;41.76;95635.50;10298935;28;2123;-69
2024/03/16 05:17:21;;;;;;;;;;;;;;;20.47;41.30;95631.53;10292459;28;2165;-69
2024/03/16 05:22:21;;;;;;;;;;;;;;;20.51;41.26;95629.94;10293932;28;2129;-69
2024/03/16 05:27:22;;;;;;;;;;;;;;;20.59;41.11;95625.91;10291958;28;2097;-69
2024/03/16 05:32:23;;;;;;;;;;;;;;;20.64;41.26;95623.25;10296782;28;2042;-69
2024/03/16 05:37:23;;;;;;;;;;;;;;;20.71;40.97;95624.50;10322609;28;2076;-69
2024/03/16 05:42:23;;;;;;;;;;;;;;;20.75;40.67;95630.00;10293149;28;2050;-70
2024/03/16 05:47:24;;;;;;;;;;;;;;;20.80;40.43;95628.09;10307679;28;2330;-67
2024/03/16 05:52:24;;;;;;;;;;;;;;;20.85;40.52;95635.97;10290492;28;2041;-67
2024/03/16 05:57:24;;;;;;;;;;;;;;;20.89;40.50;95644.91;10277510;28;2132;-67
2024/03/16 06:02:25;;;;;;;;;;;;;;;20.94;39.91;95639.56;10293211;28;2194;-68
2024/03/16 06:07:25;;;;;;;;;;;;;;;20.98;39.16;95639.78;10310347;28;2102;-67
2024/03/16 06:12:30;;;;;;;;;;;;;;;21.01;39.57;95644.50;10321106;28;2070;-68
2024/03/16 06:17:31;;;;;;;;;;;;;;;21.04;39.13;95660.56;10292187;28;2116;-68
2024/03/16 06:22:31;;;;;;;;;;;;;;;21.06;38.65;95655.81;10273949;28;2129;-68
2024/03/16 06:27:32;;;;;;;;;;;;;;;21.10;39.15;95669.25;10290968;28;2427;-68
2024/03/16 06:32:38;;;;;;;;;;;;;;;21.14;38.75;95674.72;10294491;28;2079;-68
2024/03/16 06:37:38;;;;;;;;;;;;;;;21.16;38.99;95673.41;10300377;28;2043;-70
2024/03/16 06:42:38;;;;;;;;;;;;;;;21.18;38.57;95686.28;10297324;28;2026;-72
2024/03/16 06:47:39;;;;;;;;;;;;;;;21.24;38.63;95695.72;10297213;28;2120;-66
2024/03/16 06:52:39;;;;;;;;;;;;;;;21.29;38.91;95698.31;10326349;28;2053;-65
2024/03/16 06:57:39;;;;;;;;;;;;;;;21.29;38.94;95706.22;10296865;28;2293;-65
2024/03/16 07:02:42;;;;;;;;;;;;;;;21.29;38.10;95717.53;10326475;28;2066;-65
2024/03/16 07:07:42;;;;;;;;;;;;;;;21.30;38.49;95723.59;10298237;28;2008;-65
2024/03/16 07:12:43;;;;;;;;;;;;;;;21.31;38.93;95725.94;10295082;28;2792;-66
2024/03/16 07:17:43;;;;;;;;;;;;;;;21.33;38.32;95744.16;10296102;28;2156;-66
2024/03/16 07:22:43;;;;;;;;;;;;;;;21.36;38.35;95736.47;10301749;28;2147;-64
2024/03/16 07:27:44;;;;;;;;;;;;;;;21.36;39.58;95749.66;10293556;28;2104;-62
2024/03/16 07:32:46;;;;;;;;;;;;;;;21.35;38.45;95755.22;10295957;28;2056;-61
2024/03/16 07:37:46;;;;;;;;;;;;;;;21.39;38.15;95756.22;10324932;28;2051;-64
2024/03/16 07:42:47;;;;;;;;;;;;;;;21.36;38.59;95762.03;10294900;28;2074;-64
2024/03/16 07:47:47;;;;;;;;;;;;;;;21.37;38.95;95768.91;10296160;28;2269;-64
2024/03/16 07:52:47;;;;;;;;;;;;;;;21.42;38.60;95768.84;10294984;28;2129;-66
2024/03/16 07:57:48;;;;;;;;;;;;;;;21.42;38.78;95774.09;10295277;28;2610;-65
2024/03/16 08:02:49;;;;;;;;;;;;;;;21.41;38.21;95791.00;10294979;28;2001;-65
2024/03/16 08:07:49;;;;;;;;;;;;;;;21.44;38.98;95788.59;10296975;28;2046;-68
2024/03/16 08:12:49;;;;;;;;;;;;;;;21.39;38.11;95793.13;10299478;28;2136;-66
2024/03/16 08:17:51;;;;;;;;;;;;;;;21.40;38.23;95805.25;10294544;28;2227;-68
2024/03/16 08:22:54;;;;;;;;;;;;;;;21.38;38.08;95796.81;10294154;28;2101;-68
2024/03/16 08:27:55;;;;;;;;;;;;;;;21.36;38.75;95805.03;10296862;28;2198;-70
2024/03/16 08:32:56;;;;;;;;;;;;;;;21.45;39.53;95807.84;10293655;28;2094;-71
2024/03/16 08:37:56;;;;;;;;;;;;;;;21.43;39.30;95804.72;10320758;28;2904;-77
2024/03/16 08:42:57;;;;;;;;;;;;;;;21.41;38.72;95812.09;10292980;28;2030;-75
2024/03/16 08:47:57;;;;;;;;;;;;;;;21.44;39.06;95801.00;10283639;28;2073;-74
2024/03/16 08:52:58;;;;;;;;;;;;;;;21.44;38.69;95806.25;10292511;28;2113;-74
2024/03/16 08:57:58;;;;;;;;;;;;;;;21.41;38.26;95812.88;10294059;28;2101;-73
2024/03/16 09:03:00;;;;;;;;;;;;;;;21.44;38.57;95811.53;10296029;28;2138;-75
2024/03/16 09:08:01;;;;;;;;;;;;;;;21.40;38.61;95805.25;10299174;28;1950;-78
2024/03/16 09:13:01;;;;;;;;;;;;;;;21.38;37.91;95808.16;10291129;28;2239;-72
2024/03/16 09:18:03;;;;;;;;;;;;;;;21.39;38.66;95811.59;10324172;28;2475;-73
2024/03/16 09:23:03;;;;;;;;;;;;;;;21.35;39.19;95821.13;10323908;27;2034;-74
2024/03/16 09:28:03;;;;;;;;;;;;;;;21.34;38.82;95819.53;10295083;28;2075;-72
2024/03/16 09:33:04;;;;;;;;;;;;;;;21.34;39.06;95832.72;10306139;28;2295;-74
2024/03/16 09:38:07;;;;;;;;;;;;;;;21.33;38.44;95831.94;10292579;28;2255;-72
2024/03/16 09:43:07;;;;;;;;;;;;;;;21.32;39.14;95834.84;10290992;28;1988;-72
2024/03/16 09:48:09;;;;;;;;;;;;;;;21.31;39.37;95843.84;10286424;28;2040;-73
2024/03/16 09:53:10;;;;;;;;;;;;;;;21.34;38.86;95838.78;10298708;28;1979;-73
2024/03/16 09:58:10;;;;;;;;;;;;;;;21.36;39.02;95830.59;10290418;28;2107;-75
2024/03/16 10:03:10;;;;;;;;;;;;;;;21.35;39.61;95826.41;10292160;28;2557;-73
2024/03/16 10:08:11;;;;;;;;;;;;;;;21.35;39.37;95824.53;10294455;28;2001;-70
2024/03/16 10:13:12;;;;;;;;;;;;;;;21.38;38.61;95825.84;10318271;28;2082;-75
2024/03/16 10:18:16;;;;;;;;;;;;;;;21.41;38.72;95820.03;10292497;28;2032;-72
2024/03/16 10:23:16;;;;;;;;;;;;;;;21.37;39.44;95826.91;10308459;28;2083;-75
2024/03/16 10:28:17;;;;;;;;;;;;;;;21.36;39.24;95830.59;10323355;28;2371;-60
2024/03/16 10:33:18;;;;;;;;;;;;;;;21.42;38.12;95840.84;10290292;28;2104;-60
2024/03/16 10:38:22;;;;;;;;;;;;;;;21.39;38.80;95837.97;10290570;28;2143;-60
2024/03/16 10:43:23;;;;;;;;;;;;;;;21.39;37.77;95835.34;10291177;28;2539;-60
2024/03/16 10:48:23;;;;;;;;;;;;;;;21.42;40.14;95842.69;10289032;28;2084;-61
2024/03/16 10:53:25;;;;;;;;;;;;;;;21.44;39.55;95853.72;10289160;28;2116;-68
2024/03/16 10:58:25;;;;;;;;;;;;;;;21.43;41.42;95844.25;10290870;28;1999;-67
2024/03/16 11:03:27;;;;;;;;;;;;;;;21.42;41.43;95846.09;10310774;28;2164;-68
2024/03/16 11:08:37;;;;;;;;;;;;;;;21.43;40.52;95829.19;10288674;28;2206;-68
2024/03/16 11:13:39;;;;;;;;;;;;;;;21.41;40.79;95835.84;10289558;28;2222;-63
2024/03/16 11:18:40;;;;;;;;;;;;;;;21.37;42.26;95835.59;10293454;28;2141;-66
2024/03/16 11:23:40;;;;;;;;;;;;;;;21.38;42.63;95836.38;10311103;28;2642;-66
2024/03/16 11:28:43;;;;;;;;;;;;;;;21.42;42.58;95824.22;10295435;28;2047;-66
2024/03/16 11:33:44;;;;;;;;;;;;;;;21.39;43.86;95843.25;10295479;28;2218;-65
2024/03/16 11:38:49;;;;;;;;;;;;;;;21.41;43.65;95841.13;10292811;28;2044;-67
2024/03/16 11:43:50;;;;;;;;;;;;;;;21.39;44.19;95849.28;10295391;28;2202;-65
2024/03/16 11:48:50;;;;;;;;;;;;;;;21.37;44.53;95838.22;10323271;28;2227;-67
2024/03/16 11:53:50;;;;;;;;;;;;;;;21.37;44.05;95845.38;10297110;28;2285;-69
2024/03/16 11:58:51;;;;;;;;;;;;;;;21.35;44.70;95839.59;10323953;28;2208;-68
2024/03/16 12:03:51;;;;;;;;;;;;;;;21.34;44.66;95845.91;10324977;28;2673;-68
2024/03/16 12:08:51;;;;;;;;;;;;;;;21.29;44.73;95830.16;10325802;28;2044;-68
2024/03/16 12:13:56;;;;;;;;;;;;;;;21.26;44.40;95838.59;10310522;28;2085;-68
2024/03/16 12:18:56;;;;;;;;;;;;;;;21.25;44.63;95835.16;10296068;28;2034;-67
2024/03/16 12:23:57;;;;;;;;;;;;;;;21.25;45.26;95826.44;10298639;28;2121;-67
2024/03/16 12:29:07;;;;;;;;;;;;;;;21.22;45.28;95819.13;10293487;28;2288;-68
2024/03/16 12:34:09;;;;;;;;;;;;;;;21.21;45.09;95828.06;10293077;28;2145;-69
2024/03/16 12:39:11;;;;;;;;;;;;;;;21.20;45.23;95826.50;10293343;28;2050;-68
2024/03/16 12:44:11;;;;;;;;;;;;;;;21.19;44.67;95819.66;10295099;28;2051;-68
2024/03/16 12:49:12;;;;;;;;;;;;;;;21.19;44.71;95809.09;10296944;28;2537;-67
2024/03/16 12:54:12;;;;;;;;;;;;;;;21.16;44.90;95817.59;10281988;28;2181;-66
2024/03/16 12:59:13;;;;;;;;;;;;;;;21.17;44.72;95821.78;10311713;28;2041;-68
2024/03/16 13:04:13;;;;;;;;;;;;;;;21.17;44.83;95863.94;10295193;28;2154;-68
2024/03/16 13:09:16;;;;;;;;;;;;;;;21.16;45.09;95883.47;10293841;28;2051;-67
2024/03/16 13:14:16;;;;;;;;;;;;;;;21.18;45.15;95852.34;10291825;28;2108;-68
2024/03/16 13:19:17;;;;;;;;;;;;;;;21.18;44.73;95907.72;10293455;28;2055;-67
2024/03/16 13:24:19;;;;;;;;;;;;;;;21.15;44.82;95913.53;10293147;28;2070;-67
2024/03/16 13:29:19;;;;;;;;;;;;;;;21.15;44.47;95909.03;10373900;28;2558;-67
2024/03/16 13:34:20;;;;;;;;;;;;;;;21.14;44.77;95896.94;10292038;28;2100;-66
2024/03/16 13:39:20;;;;;;;;;;;;;;;21.13;45.27;95889.28;10292965;28;2176;-68
2024/03/16 13:44:20;;;;;;;;;;;;;;;21.13;45.43;95905.09;10288684;28;2115;-62
2024/03/16 13:49:21;;;;;;;;;;;;;;;21.12;44.63;95908.81;10295658;28;1982;-68
2024/03/16 13:54:21;;;;;;;;;;;;;;;21.10;44.54;95911.72;10307356;28;2063;-68
2024/03/16 13:59:22;;;;;;;;;;;;;;;21.10;44.52;95897.75;10319428;28;2235;-68
2024/03/16 14:04:22;;;;;;;;;;;;;;;21.08;44.38;95889.34;10307269;28;1962;-68
2024/03/16 14:09:22;;;;;;;;;;;;;;;21.10;43.95;95895.13;10279771;28;2222;-68
2024/03/16 14:14:22;;;;;;;;;;;;;;;21.09;44.15;95896.97;10287639;28;2007;-67
2024/03/16 14:19:23;;;;;;;;;;;;;;;21.10;43.48;95893.28;10293223;28;2015;-68
2024/03/16 14:24:23;;;;;;;;;;;;;;;21.09;43.28;95891.69;10297475;28;2543;-69
2024/03/16 14:29:23;;;;;;;;;;;;;;;21.11;43.08;95896.69;10294740;28;2050;-67
2024/03/16 14:34:24;;;;;;;;;;;;;;;21.12;41.54;95888.53;10294083;28;2327;-67
2024/03/16 14:39:27;;;;;;;;;;;;;;;21.15;41.50;95893.22;10322714;28;2156;-67
2024/03/16 14:44:27;;;;;;;;;;;;;;;21.17;41.28;95892.94;10319388;28;2080;-65
2024/03/16 14:49:28;;;;;;;;;;;;;;;21.17;40.69;95896.38;10288292;28;1997;-67
2024/03/16 14:54:28;;;;;;;;;;;;;;;21.18;41.58;95903.25;10296305;28;2102;-68
2024/03/16 14:59:29;;;;;;;;;;;;;;;21.18;40.31;95889.25;10300669;28;2167;-68
2024/03/16 15:04:29;;;;;;;;;;;;;;;21.17;41.70;95892.94;10296777;28;2184;-66
2024/03/16 15:09:29;;;;;;;;;;;;;;;21.18;40.22;95891.91;10302060;28;2363;-66
2024/03/16 15:14:29;;;;;;;;;;;;;;;21.22;41.17;95892.94;10297771;28;1980;-66
2024/03/16 15:19:30;;;;;;;;;;;;;;;21.23;41.47;95895.28;10294572;28;2058;-65
2024/03/16 15:24:30;;;;;;;;;;;;;;;21.30;41.36;95902.88;10295699;28;2062;-67
2024/03/16 15:29:30;;;;;;;;;;;;;;;21.30;40.01;95910.81;10295989;28;2215;-68
2024/03/16 15:34:30;;;;;;;;;;;;;;;21.33;41.71;95908.41;10296184;28;2027;-69
2024/03/16 15:39:31;;;;;;;;;;;;;;;21.37;42.47;95921.84;10293442;28;1883;-66
2024/03/16 15:44:31;;;;;;;;;;;;;;;21.40;41.67;95913.38;10297187;28;2331;-68
2024/03/16 15:49:31;;;;;;;;;;;;;;;21.41;42.64;95913.09;10295733;28;2219;-66
2024/03/16 15:54:33;;;;;;;;;;;;;;;21.42;42.16;95914.66;10311780;28;2102;-67
2024/03/16 15:59:36;;;;;;;;;;;;;;;21.42;42.32;95913.88;10295534;28;2139;-67
2024/03/16 16:04:37;;;;;;;;;;;;;;;21.39;43.22;95922.34;10300209;28;2376;-67
2024/03/16 16:09:37;;;;;;;;;;;;;;;21.43;42.87;95934.69;10296423;28;2086;-67
2024/03/16 16:14:37;;;;;;;;;;;;;;;21.39;43.59;95938.94;10290450;28;2113;-67
2024/03/16 16:19:40;;;;;;;;;;;;;;;21.36;44.00;95951.88;10294605;28;2117;-66
2024/03/16 16:24:40;;;;;;;;;;;;;;;21.33;44.44;95955.84;10294683;28;1978;-66
2024/03/16 16:29:40;;;;;;;;;;;;;;;21.33;44.21;95963.00;10295896;28;2125;-66
2024/03/16 16:34:43;;;;;;;;;;;;;;;21.30;44.20;95968.81;10293259;28;2085;-66
2024/03/16 16:39:43;;;;;;;;;;;;;;;21.27;43.91;95972.00;10294198;28;2050;-66
2024/03/16 16:44:43;;;;;;;;;;;;;;;21.27;43.73;95983.31;10290905;28;2115;-67
2024/03/16 16:49:44;;;;;;;;;;;;;;;21.25;44.18;95992.53;10293408;28;2199;-65
2024/03/16 16:54:45;;;;;;;;;;;;;;;21.24;44.02;95996.25;10293792;28;2107;-66
2024/03/16 16:59:46;;;;;;;;;;;;;;;21.21;43.88;96002.06;10294087;28;2080;-66
2024/03/16 17:04:46;;;;;;;;;;;;;;;21.19;42.86;96014.72;10291352;28;2065;-66
2024/03/16 17:09:46;;;;;;;;;;;;;;;21.15;42.87;96014.50;10300737;28;1931;-66
2024/03/16 17:14:46;;;;;;;;;;;;;;;21.14;43.06;96017.41;10289850;28;2104;-67
2024/03/16 17:19:47;;;;;;;;;;;;;;;21.13;43.16;96021.88;10290952;28;2121;-67
2024/03/16 17:24:48;;;;;;;;;;;;;;;21.13;42.85;96027.16;10290094;28;2224;-67
2024/03/16 17:29:51;;;;;;;;;;;;;;;21.11;43.11;96029.25;10358389;28;2216;-67
2024/03/16 17:34:53;;;;;;;;;;;;;;;21.12;43.24;96035.34;10290030;28;2159;-67
2024/03/16 17:39:53;;;;;;;;;;;;;;;21.11;43.61;96041.66;10322877;28;2089;-67
2024/03/16 17:44:54;;;;;;;;;;;;;;;21.11;43.04;96053.00;10292615;28;2251;-67
2024/03/16 17:49:54;;;;;;;;;;;;;;;21.12;42.51;96053.78;10275785;28;2066;-67
2024/03/16 17:54:55;;;;;;;;;;;;;;;21.11;43.24;96068.81;10292189;28;2130;-67
2024/03/16 17:59:56;;;;;;;;;;;;;;;21.11;42.84;96068.81;10291469;28;2127;-67
2024/03/16 18:04:56;;;;;;;;;;;;;;;21.14;42.24;96078.03;10290869;28;2297;-67
2024/03/16 18:09:59;;;;;;;;;;;;;;;21.16;42.78;96078.56;10320262;28;2145;-67
2024/03/16 18:15:00;;;;;;;;;;;;;;;21.15;41.36;96083.03;10288524;28;2021;-65
2024/03/16 18:20:00;;;;;;;;;;;;;;;21.16;41.37;96081.19;10322640;28;2113;-65
2024/03/16 18:25:00;;;;;;;;;;;;;;;21.16;41.72;96092.53;10321559;28;2046;-67
2024/03/16 18:30:01;;;;;;;;;;;;;;;21.15;42.36;96100.69;10302556;28;2464;-63
2024/03/16 18:35:01;;;;;;;;;;;;;;;21.17;42.35;96106.47;10334066;27;1955;-66
2024/03/16 18:40:05;;;;;;;;;;;;;;;21.17;42.00;96122.28;10307418;28;2253;-65
2024/03/16 18:45:06;;;;;;;;;;;;;;;21.20;41.57;96127.84;10304959;28;2217;-66
2024/03/16 18:50:07;;;;;;;;;;;;;;;21.19;39.90;96134.16;10334364;28;2254;-66
2024/03/16 18:55:08;;;;;;;;;;;;;;;21.17;42.18;96138.09;10334211;27;2112;-67
2024/03/16 19:00:17;;;;;;;;;;;;;;;21.17;42.71;96146.03;10301886;28;2180;-67
2024/03/16 19:05:17;;;;;;;;;;;;;;;21.20;41.29;96169.22;10305972;28;2095;-67
2024/03/16 19:10:17;;;;;;;;;;;;;;;21.19;40.84;96165.00;10307405;28;2318;-66
2024/03/16 19:15:18;;;;;;;;;;;;;;;21.17;41.56;96167.91;10301229;28;1936;-66
2024/03/16 19:20:18;;;;;;;;;;;;;;;21.19;40.40;96172.91;10302386;28;2102;-66
2024/03/16 19:25:19;;;;;;;;;;;;;;;21.22;39.27;96182.94;10318846;28;2141;-66
2024/03/16 19:30:19;;;;;;;;;;;;;;;21.18;40.84;96177.41;10302216;28;2149;-66
2024/03/16 19:35:19;;;;;;;;;;;;;;;21.20;40.29;96195.59;10304600;28;2376;-66
2024/03/16 19:40:20;;;;;;;;;;;;;;;21.19;41.39;96194.78;10294716;28;2240;-66
2024/03/16 19:45:21;;;;;;;;;;;;;;;21.22;39.69;96198.75;10297905;28;2120;-65
2024/03/16 19:50:23;;;;;;;;;;;;;;;21.18;41.59;96197.69;10297094;28;2036;-66
2024/03/16 19:55:26;;;;;;;;;;;;;;;21.20;40.31;96201.66;10297375;28;2266;-66
2024/03/16 20:00:27;;;;;;;;;;;;;;;21.20;40.86;96206.94;10296996;28;2111;-65
2024/03/16 20:05:29;;;;;;;;;;;;;;;21.22;39.34;96223.28;10294596;28;2508;-66
2024/03/16 20:10:30;;;;;;;;;;;;;;;21.19;40.80;96229.06;10290711;28;2114;-66
2024/03/16 20:15:30;;;;;;;;;;;;;;;21.17;39.88;96218.00;10298295;28;2031;-66
2024/03/16 20:20:30;;;;;;;;;;;;;;;21.22;39.59;96231.19;10294303;28;2084;-66
2024/03/16 20:25:31;;;;;;;;;;;;;;;21.22;40.18;96227.75;10322448;28;2037;-66
2024/03/16 20:30:31;;;;;;;;;;;;;;;21.21;39.93;96228.78;10278343;28;2287;-66
2024/03/16 20:35:31;;;;;;;;;;;;;;;21.20;40.85;96233.28;10298344;28;2089;-66
2024/03/16 20:40:32;;;;;;;;;;;;;;;21.21;40.47;96241.97;10278282;28;2134;-65
2024/03/16 20:45:32;;;;;;;;;;;;;;;21.20;40.59;96250.94;10292927;28;2046;-66
2024/03/16 20:50:34;;;;;;;;;;;;;;;21.20;40.46;96258.88;10295166;28;2362;-66
2024/03/16 20:55:34;;;;;;;;;;;;;;;21.17;40.66;96254.91;10292423;28;2076;-64
2024/03/16 21:00:38;;;;;;;;;;;;;;;21.15;41.39;96264.94;10281405;28;2785;-65
2024/03/16 21:05:38;;;;;;;;;;;;;;;21.15;40.52;96269.41;10296191;28;2290;-65
2024/03/16 21:10:39;;;;;;;;;;;;;;;21.12;41.32;96285.75;10292219;28;2056;-65
2024/03/16 21:15:39;;;;;;;;;;;;;;;21.11;42.18;96286.78;10296227;28;2088;-65
2024/03/16 21:20:39;;;;;;;;;;;;;;;21.06;41.90;96288.38;10292334;28;2188;-66
2024/03/16 21:25:41;;;;;;;;;;;;;;;21.06;41.28;96300.78;10310400;28;2027;-65
2024/03/16 21:30:41;;;;;;;;;;;;;;;21.03;40.60;96302.09;10323128;28;2054;-66
2024/03/16 21:35:41;;;;;;;;;;;;;;;20.99;41.19;96306.28;10292512;28;2050;-65
2024/03/16 21:40:42;;;;;;;;;;;;;;;20.98;41.57;96319.69;10294734;28;2110;-66
2024/03/16 21:45:42;;;;;;;;;;;;;;;20.95;41.70;96322.88;10291821;28;2578;-66
2024/03/16 21:50:43;;;;;;;;;;;;;;;20.93;41.05;96331.06;10290462;28;2138;-66
2024/03/16 21:55:43;;;;;;;;;;;;;;;20.93;41.52;96315.25;10292822;28;2121;-65
2024/03/16 22:00:43;;;;;;;;;;;;;;;20.92;41.24;96321.56;10291051;28;2396;-66
2024/03/16 22:05:43;;;;;;;;;;;;;;;20.92;40.65;96315.47;10291411;28;2111;-66
2024/03/16 22:10:45;;;;;;;;;;;;;;;20.90;41.65;96313.13;10292760;28;2081;-66
2024/03/16 22:15:46;;;;;;;;;;;;;;;20.87;41.34;96316.28;10291267;28;2018;-65
2024/03/16 22:20:46;;;;;;;;;;;;;;;20.86;41.69;96321.81;10289075;28;2075;-66
2024/03/16 22:25:51;;;;;;;;;;;;;;;20.84;41.42;96323.91;10293210;28;2762;-66
2024/03/16 22:30:51;;;;;;;;;;;;;;;20.82;42.08;96324.16;10292549;28;2041;-65
2024/03/16 22:35:51;;;;;;;;;;;;;;;20.82;41.98;96333.91;10307782;28;1986;-62
2024/03/16 22:40:52;;;;;;;;;;;;;;;20.80;40.65;96339.44;10317300;28;2035;-62
2024/03/16 22:45:54;;;;;;;;;;;;;;;20.77;42.31;96332.06;10290631;28;2042;-62
2024/03/16 22:50:55;;;;;;;;;;;;;;;20.75;41.94;96336.78;10306883;28;2071;-65
2024/03/16 22:55:55;;;;;;;;;;;;;;;20.79;39.29;96340.50;10304521;28;1964;-67
2024/03/16 23:00:58;;;;;;;;;;;;;;;20.74;40.31;96334.44;10291150;28;2107;-66
2024/03/16 23:05:59;;;;;;;;;;;;;;;20.71;41.14;96342.88;10286880;28;2092;-66
2024/03/16 23:10:59;;;;;;;;;;;;;;;20.68;41.14;96340.75;10288342;28;2547;-66
2024/03/16 23:16:00;;;;;;;;;;;;;;;20.68;41.45;96333.63;10296188;28;2160;-66
2024/03/16 23:21:01;;;;;;;;;;;;;;;20.66;41.24;96333.09;10297030;28;2117;-66
2024/03/16 23:26:02;;;;;;;;;;;;;;;20.65;41.31;96336.78;10326657;28;2062;-66
2024/03/16 23:31:03;;;;;;;;;;;;;;;20.65;41.52;96349.19;10326851;27;2224;-66
2024/03/16 23:36:03;;;;;;;;;;;;;;;20.62;41.95;96337.31;10279191;28;2283;-66
2024/03/16 23:41:04;;;;;;;;;;;;;;;20.62;41.73;96342.56;10295512;28;2104;-66
2024/03/16 23:46:07;;;;;;;;;;;;;;;20.61;41.29;96334.94;10297901;28;1929;-67
2024/03/16 23:51:08;;;;;;;;;;;;;;;20.59;41.22;96334.38;10296105;28;2259;-67
2024/03/16 23:56:08;;;;;;;;;;;;;;;20.58;41.60;96325.72;10296324;28;2814;-66
